Flight Track Log - Related Links

Times and Time Zones

All times are in EST time to prevent confusion due to time zone crossing. See the SSX938 flight status page for this flight to view local times or setup timezone preferences in your user account.

Time Position Orientation Groundspeed Altitude Reporting Facility
EST Latitude Longitude Course Direction KTS MPH feet Rate Location/Type
Sun 07:30:12 PM 35.0147 -106.6380 270° West 180 207 6,200  Level Albuquerque Center
Sun 07:31:07 PM 35.0150 -106.6890 257° West 190 219 7,800 2,079 Climbing Albuquerque Center
Sun 07:31:53 PM 35.0050 -106.7400 293° West 188 216 9,700 2,094 Climbing Albuquerque Center
Sun 07:32:53 PM 35.0219 -106.7880 36° Northeast 188 216 11,500 1,800 Climbing Albuquerque Center
Sun 07:33:53 PM 35.0717 -106.7440 38° Northeast 116 133 13,300 1,800 Climbing Albuquerque Center
Sun 07:34:53 PM 35.1214 -106.6960 34° Northeast 172 198 15,100 1,800 Climbing Albuquerque Center
Sun 07:35:53 PM 35.1775 -106.6500 17° North 215 247 16,900 1,850 Climbing Albuquerque Center
Sun 07:36:53 PM 35.2422 -106.6260 15° North 228 262 18,800 1,850 Climbing Albuquerque Center
Sun 07:37:53 PM 35.3067 -106.6050 16° North 222 255 20,600 1,600 Climbing Albuquerque Center
Sun 07:38:53 PM 35.3650 -106.5840 North 222 255 22,000 1,350 Climbing Albuquerque Center
Sun 07:39:53 PM 35.4192 -106.5740 North 222 255 23,300 1,050 Climbing Albuquerque Center
Sun 07:40:53 PM 35.4839 -106.5730 North 222 255 24,100 850 Climbing Albuquerque Center
Sun 07:41:53 PM 35.5589 -106.5620 North 229 264 25,000 450 Climbing Albuquerque Center
Sun 07:42:53 PM 35.6256 -106.5540 North 240 276 25,000  Level Albuquerque Center
Sun 07:43:53 PM 35.6986 -106.5450 North 275 316 25,000  Level Albuquerque Center
Sun 07:44:53 PM 35.7925 -106.5340 North 294 338 25,000  Level Albuquerque Center
Sun 07:45:53 PM 35.8758 -106.5180 12° North 307 353 25,000  Level Albuquerque Center
Sun 07:46:53 PM 35.9611 -106.4960 22° Northeast 320 368 25,000  Level Albuquerque Center
Sun 07:47:53 PM 36.0464 -106.4540 23° Northeast 320 368 25,000  Level Albuquerque Center
Sun 07:48:53 PM 36.1317 -106.4100 20° North 325 374 25,000  Level Albuquerque Center
Sun 07:49:53 PM 36.2250 -106.3670 21° North 325 374 25,000  Level Albuquerque Center
Sun 07:50:53 PM 36.3083 -106.3270 22° Northeast 325 374 25,000  Level Albuquerque Center
Sun 07:53:03 PM 36.4856 -106.2380 21° North 334 384 25,000  Level Denver Center
Sun 07:54:03 PM 36.5667 -106.1990 21° North 323 372 25,000  Level Denver Center
Sun 07:55:03 PM 36.6500 -106.1600 21° North 317 365 25,000  Level Denver Center
Sun 07:56:03 PM 36.7164 -106.1290 21° North 317 365 25,000  Level Denver Center
Sun 07:57:03 PM 36.8164 -106.0820 23° Northeast 316 364 25,000  Level Denver Center
Sun 07:58:03 PM 36.8953 -106.0400 22° Northeast 311 358 25,000  Level Denver Center
Sun 07:59:03 PM 36.9681 -106.0030 15° North 311 358 25,000  Level Denver Center
Sun 08:00:03 PM 37.0556 -105.9740 10° North 311 358 25,000  Level Denver Center
Sun 08:01:03 PM 37.1450 -105.9550 10° North 302 348 25,000  Level Denver Center
Sun 08:02:03 PM 37.2283 -105.9360 11° North 302 348 25,000  Level Denver Center
Sun 08:03:03 PM 37.3033 -105.9170 North 296 341 25,000  Level Denver Center
Sun 08:04:03 PM 37.3886 -105.9010 11° North 296 341 25,000  Level Denver Center
Sun 08:05:03 PM 37.4781 -105.8790 North 296 341 25,000  Level Denver Center
Sun 08:06:03 PM 37.5636 -105.8630 12° North 301 346 25,000  Level Denver Center
Sun 08:07:03 PM 37.6344 -105.8440 10° North 301 346 25,000  Level Denver Center
Sun 08:08:03 PM 37.7156 -105.8250 11° North 294 338 25,000  Level Denver Center
Sun 08:09:03 PM 37.8072 -105.8030 North 299 344 25,000  Level Denver Center
Sun 08:10:03 PM 37.8861 -105.7870 11° North 294 338 25,000 50 Level Denver Center
Sun 08:11:03 PM 37.9633 -105.7680 North 299 344 25,100  Climbing Denver Center
Sun 08:12:03 PM 38.0444 -105.7510 11° North 294 338 25,000 -50 Descending Denver Center
Sun 08:13:03 PM 38.1361 -105.7290 North 294 338 25,000  Level Denver Center
Sun 08:14:03 PM 38.2172 -105.7120 10° North 294 338 25,000  Level Denver Center
Sun 08:15:03 PM 38.2983 -105.6930 12° North 294 338 25,000  Level Denver Center
Sun 08:16:03 PM 38.3733 -105.6730 10° North 294 338 25,000  Level Denver Center
Sun 08:17:03 PM 38.4608 -105.6540 10° North 294 338 25,000  Level Denver Center
Sun 08:18:03 PM 38.5461 -105.6340 12° North 299 344 25,000  Level Denver Center
Sun 08:19:03 PM 38.6272 -105.6120 10° North 299 344 25,000  Level Denver Center
Sun 08:20:03 PM 38.7064 -105.5950 10° North 305 351 25,000  Level Denver Center
Sun 08:21:03 PM 38.8042 -105.5730 10° North 323 372 25,000 -50 Level Denver Center
Sun 08:22:03 PM 38.8917 -105.5530 12° North 317 365 24,900 -1,000 Descending Denver Center
Sun 08:23:03 PM 38.9808 -105.5280 North 317 365 23,000 -1,900 Descending Denver Center
Sun 08:24:03 PM 39.0622 -105.5110 20° North 323 372 21,100 -2,000 Descending Denver Center
Sun 08:25:03 PM 39.1494 -105.4690 48° Northeast 323 372 19,000 -2,150 Descending Denver Center
Sun 08:26:03 PM 39.2194 -105.3690 53° Northeast 329 379 16,800 -1,900 Descending Denver Center
Sun 08:27:03 PM 39.2767 -105.2710 49° Northeast 341 392 15,200 -1,200 Descending Denver Center
Sun 08:28:03 PM 39.3322 -105.1880 51° Northeast 319 367 14,400 -800 Descending Denver Center
Sun 08:29:03 PM 39.3853 -105.1030 71° East 305 351 13,600 -700 Descending Denver Center
Sun 08:30:03 PM 39.4114 -105.0030 83° East 300 345 13,000 -750 Descending Denver Center
Sun 08:31:03 PM 39.4203 -104.9060 67° East 284 327 12,100 -682 Descending Denver Center
Sun 08:31:31 PM 39.4333 -104.8670 57° Northeast 260 299 12,000 -333 Descending Denver TRACON
Sun 08:32:33 PM 39.4667 -104.8000 21° North 252 290 11,600 -836 Descending Denver TRACON
Sun 08:33:33 PM 39.5333 -104.7670 21° North 244 281 10,300 -950 Descending Denver TRACON
Sun 08:34:33 PM 39.6000 -104.7330 14° North 227 261 9,700 -814 Descending Denver TRACON
Sun 08:35:31 PM 39.6500 -104.7170 28° Northeast 207 238 8,700 -1,008 Descending Denver TRACON
Sun 08:36:32 PM 39.7000 -104.6830 14° North 186 214 7,700 -836 Descending Denver TRACON
Sun 08:37:33 PM 39.7500 -104.6670 360° North 180 207 7,000 -694 Descending Denver TRACON
Sun 08:38:33 PM 39.7833 -104.6670 360° North 150 173 6,300 -910 Descending Denver TRACON
Sun 08:45:21 PM 39.8500 -104.6670 360° North -1 -941 Descending FlightAware Approximate

Login

Don't have an account? Register now (free) for customized features, flight alerts, and more!